Time;durP1;ratioP1;P1;durP2;ratioP2;P2;SDS_P1;SDS_P2;PMS_P1;PMS_P2;Temp;Humidity;BMP_temperature;BMP_pressure;BME280_temperature;BME280_humidity;BME280_pressure;Samples;Min_cycle;Max_cycle;Signal;HPM_P1;HPM_P2
2023/07/21 06:23:49;;;;;;;44.35;15.50;;;28.60;94.30;;;;;;4425068;22;1316068;-68
2023/07/21 06:26:54;;;;;;;49.53;14.18;;;30.40;92.20;;;;;;5090762;28;20031;-69
2023/07/21 06:30:00;;;;;;;49.65;14.32;;;31.60;90.40;;;;;;5089956;28;20051;-69
2023/07/21 06:33:13;;;;;;;42.63;12.13;;;32.70;87.90;;;;;;5090091;28;20035;-69
2023/07/21 06:36:23;;;;;;;44.50;12.02;;;33.60;85.20;;;;;;5090110;28;20567;-68
2023/07/21 06:39:48;;;;;;;36.08;12.50;;;34.00;83.40;;;;;;5089781;28;20035;-72
2023/07/21 06:43:06;;;;;;;49.00;13.00;;;34.50;82.30;;;;;;5090041;28;20051;-70
2023/07/21 06:46:29;;;;;;;39.70;12.70;;;34.80;81.40;;;;;;5090121;28;20134;-69
2023/07/21 06:50:08;;;;;;;36.65;13.32;;;35.10;81.20;;;;;;5089520;28;20055;-68
2023/07/21 06:53:13;;;;;;;48.40;13.70;;;35.30;80.90;;;;;;5089673;28;20043;-68
2023/07/21 06:56:17;;;;;;;37.28;12.02;;;35.40;81.40;;;;;;5090060;28;20047;-68
2023/07/21 06:59:21;;;;;;;36.38;11.68;;;35.50;81.60;;;;;;5090792;28;20592;-68
2023/07/21 07:02:30;;;;;;;36.95;12.70;;;35.80;81.40;;;;;;5090649;28;20047;-69
2023/07/21 07:05:34;;;;;;;35.60;11.55;;;35.70;81.50;;;;;;5090421;28;20051;-69
2023/07/21 07:08:39;;;;;;;35.78;11.77;;;36.00;81.10;;;;;;5089583;28;20489;-69
2023/07/21 07:11:43;;;;;;;35.95;11.43;;;36.20;81.50;;;;;;5090818;28;20047;-68
2023/07/21 07:14:53;;;;;;;30.80;10.65;;;36.30;82.10;;;;;;5090403;28;20047;-68
2023/07/21 07:17:58;;;;;;;37.33;11.02;;;36.60;81.10;;;;;;5090540;28;20067;-68
2023/07/21 07:21:03;;;;;;;34.70;10.13;;;37.00;80.90;;;;;;5089548;28;20063;-67
2023/07/21 07:24:07;;;;;;;31.08;9.75;;;37.20;80.10;;;;;;5090159;28;20055;-69
2023/07/21 07:27:11;;;;;;;33.15;10.77;;;37.20;79.60;;;;;;5090654;28;20394;-68
2023/07/21 07:30:16;;;;;;;26.77;10.20;;;37.00;79.70;;;;;;5089976;28;20059;-68
2023/07/21 07:33:20;;;;;;;34.83;10.43;;;37.00;79.40;;;;;;5090764;28;20050;-69
2023/07/21 07:36:27;;;;;;;40.78;10.05;;;37.40;79.10;;;;;;5094275;28;20399;-68
2023/07/21 07:39:31;;;;;;;29.15;9.57;;;37.50;79.10;;;;;;5094246;28;20498;-70
2023/07/21 07:42:35;;;;;;;22.88;8.30;;;37.90;78.20;;;;;;5094028;28;20063;-70
2023/07/21 07:45:39;;;;;;;24.85;8.02;;;38.30;77.20;;;;;;5093701;28;20059;-71
2023/07/21 07:48:47;;;;;;;23.98;8.73;;;38.60;76.00;;;;;;5093804;28;20047;-70
2023/07/21 07:51:51;;;;;;;26.90;8.77;;;38.60;75.40;;;;;;5093598;28;20035;-70
2023/07/21 07:54:55;;;;;;;29.77;8.63;;;38.60;74.30;;;;;;5093801;28;20039;-69
2023/07/21 07:58:03;;;;;;;23.10;8.25;;;38.70;74.60;;;;;;5093569;28;20403;-69
2023/07/21 08:01:07;;;;;;;24.20;8.45;;;38.80;74.50;;;;;;5093974;28;20051;-69
2023/07/21 08:04:11;;;;;;;36.25;9.15;;;38.90;74.10;;;;;;5093445;28;20059;-70
2023/07/21 08:07:16;;;;;;;29.48;9.45;;;38.90;73.60;;;;;;5093221;28;20043;-71
2023/07/21 08:10:20;;;;;;;23.00;8.85;;;38.70;72.90;;;;;;5093146;28;20407;-72
2023/07/21 08:13:24;;;;;;;36.63;10.68;;;38.80;73.20;;;;;;5093269;28;20051;-72
2023/07/21 08:16:29;;;;;;;26.25;8.15;;;38.60;71.50;;;;;;5093094;28;20047;-69
2023/07/21 08:19:36;;;;;;;40.00;8.57;;;38.90;71.40;;;;;;5093226;28;20043;-70
2023/07/21 08:22:40;;;;;;;31.70;8.93;;;39.00;69.00;;;;;;5093287;28;20051;-69
2023/07/21 08:25:44;;;;;;;35.97;9.32;;;39.00;68.50;;;;;;5091939;28;20054;-70
2023/07/21 08:28:52;;;;;;;34.90;8.05;;;39.20;69.10;;;;;;5093427;28;20050;-71
2023/07/21 08:31:59;;;;;;;38.25;9.98;;;39.50;68.00;;;;;;5093348;28;20393;-71
2023/07/21 08:35:07;;;;;;;25.02;9.20;;;39.00;68.10;;;;;;5092917;28;20375;-71
2023/07/21 08:38:12;;;;;;;30.48;8.73;;;39.20;68.10;;;;;;5092836;28;20043;-69
2023/07/21 08:41:19;;;;;;;36.17;9.48;;;39.20;66.90;;;;;;5093119;28;20419;-70
2023/07/21 08:44:23;;;;;;;38.65;10.00;;;39.20;67.30;;;;;;5092616;28;20047;-69
2023/07/21 08:47:27;;;;;;;27.75;9.65;;;39.30;67.60;;;;;;5092483;28;20048;-69
2023/07/21 08:50:33;;;;;;;38.70;10.35;;;38.90;68.40;;;;;;5092402;28;20715;-69
2023/07/21 08:53:38;;;;;;;30.95;9.35;;;39.00;67.70;;;;;;5092237;28;20039;-70
2023/07/21 08:56:41;;;;;;;30.58;9.93;;;38.90;68.50;;;;;;5092301;28;20066;-69
2023/07/21 08:59:45;;;;;;;33.45;10.10;;;39.00;68.00;;;;;;5092284;28;20051;-69
2023/07/21 09:02:59;;;;;;;22.17;9.55;;;39.20;68.70;;;;;;5092357;28;20502;-70
2023/07/21 09:06:04;;;;;;;33.80;9.48;;;39.50;68.50;;;;;;5092151;28;20043;-69
2023/07/21 09:09:17;;;;;;;31.40;9.38;;;39.50;68.60;;;;;;5092305;28;20046;-69
2023/07/21 09:12:21;;;;;;;28.63;8.50;;;39.60;68.50;;;;;;5091492;28;20051;-70
2023/07/21 09:15:25;;;;;;;29.17;9.38;;;39.80;68.00;;;;;;5091317;28;20494;-71
2023/07/21 09:18:36;;;;;;;26.40;8.60;;;39.80;67.70;;;;;;5092093;28;20047;-68
2023/07/21 09:21:40;;;;;;;29.80;8.63;;;39.90;68.00;;;;;;5092328;28;20050;-69
2023/07/21 09:24:51;;;;;;;29.33;8.85;;;40.00;67.70;;;;;;5091506;28;20154;-70
2023/07/21 09:27:57;;;;;;;34.47;8.45;;;40.30;66.50;;;;;;5092026;28;20043;-70
2023/07/21 09:31:01;;;;;;;30.27;9.15;;;40.30;66.70;;;;;;5092113;28;20305;-70
2023/07/21 09:34:08;;;;;;;27.58;8.45;;;40.60;66.30;;;;;;5091983;28;20043;-69
2023/07/21 09:37:15;;;;;;;37.92;7.93;;;40.70;65.80;;;;;;5091736;28;20406;-70
2023/07/21 09:40:27;;;;;;;44.50;8.20;;;40.70;65.30;;;;;;5091660;28;20039;-70
2023/07/21 09:43:32;;;;;;;31.67;8.45;;;40.90;64.30;;;;;;5092301;28;20039;-70
2023/07/21 09:46:36;;;;;;;37.03;9.77;;;40.90;64.10;;;;;;5091249;28;20039;-70
2023/07/21 09:49:40;;;;;;;59.08;10.25;;;41.00;64.10;;;;;;5091333;28;20055;-70
2023/07/21 09:52:47;;;;;;;27.23;7.28;;;41.20;63.10;;;;;;5091453;28;20059;-70
2023/07/21 09:55:53;;;;;;;29.08;7.55;;;41.30;62.90;;;;;;5091124;28;20039;-70
2023/07/21 09:59:06;;;;;;;43.97;8.43;;;41.20;62.20;;;;;;5091566;28;20047;-73
2023/07/21 10:02:11;;;;;;;25.25;7.75;;;41.10;62.60;;;;;;5091554;28;20047;-73
2023/07/21 10:05:15;;;;;;;30.10;6.60;;;41.00;62.70;;;;;;5091247;28;20403;-74
2023/07/21 10:08:21;;;;;;;30.88;7.18;;;40.80;62.40;;;;;;5091456;28;20047;-74
2023/07/21 10:11:27;;;;;;;41.78;8.02;;;40.60;63.20;;;;;;5091143;28;20059;-72
2023/07/21 10:14:35;;;;;;;26.35;7.43;;;40.60;64.80;;;;;;5091196;28;20498;-73
2023/07/21 10:17:54;;;;;;;23.52;7.88;;;40.70;63.80;;;;;;5090402;28;20051;-71
2023/07/21 10:20:59;;;;;;;24.05;7.20;;;40.70;64.00;;;;;;5091074;28;20040;-70
2023/07/21 10:24:05;;;;;;;26.77;7.57;;;40.60;63.50;;;;;;5090603;28;20055;-71
2023/07/21 10:27:21;;;;;;;28.70;8.60;;;40.40;63.80;;;;;;5090655;28;20039;-70
2023/07/21 10:30:25;;;;;;;20.75;7.25;;;40.20;64.00;;;;;;5090887;28;20051;-71
2023/07/21 10:33:29;;;;;;;24.33;7.05;;;40.20;64.40;;;;;;5090958;28;20412;-71
2023/07/21 10:36:52;;;;;;;22.42;7.00;;;40.50;62.70;;;;;;5089968;28;20499;-70
2023/07/21 10:39:56;;;;;;;17.65;6.65;;;40.60;63.30;;;;;;5090835;28;20035;-71
2023/07/21 10:43:00;;;;;;;30.27;8.07;;;40.40;62.70;;;;;;5090841;28;20067;-70
2023/07/21 10:46:05;;;;;;;28.83;7.05;;;40.00;63.00;;;;;;5090030;28;20051;-70
2023/07/21 10:49:10;;;;;;;21.48;6.45;;;39.40;60.00;;;;;;5090217;28;20059;-71
2023/07/21 10:52:15;;;;;;;27.73;6.75;;;38.80;61.30;;;;;;5090808;28;20521;-70
2023/07/21 10:55:19;;;;;;;32.45;6.28;;;38.50;61.10;;;;;;5090957;28;20051;-70
2023/07/21 10:58:23;;;;;;;23.15;6.85;;;38.30;60.70;;;;;;5090974;28;20047;-70
2023/07/21 11:01:27;;;;;;;26.48;7.00;;;38.20;60.50;;;;;;5090654;28;20055;-71
2023/07/21 11:04:35;;;;;;;25.88;7.07;;;38.10;62.20;;;;;;5090718;28;20629;-70
2023/07/21 11:07:39;;;;;;;25.20;7.85;;;37.90;62.30;;;;;;5090662;28;20043;-70
2023/07/21 11:10:43;;;;;;;26.73;7.93;;;37.70;64.20;;;;;;5094316;28;20407;-70
2023/07/21 11:13:48;;;;;;;28.98;7.13;;;37.60;63.70;;;;;;5094153;28;20039;-71
2023/07/21 11:16:55;;;;;;;25.05;7.53;;;37.50;63.90;;;;;;5093952;28;20031;-70
2023/07/21 11:20:06;;;;;;;27.55;7.93;;;37.50;64.40;;;;;;5094142;28;20043;-70
2023/07/21 11:23:10;;;;;;;20.08;6.65;;;37.50;64.70;;;;;;5094467;28;20039;-71
2023/07/21 11:26:18;;;;;;;21.45;8.25;;;37.50;64.80;;;;;;5094022;28;20066;-71
2023/07/21 11:29:24;;;;;;;26.98;8.18;;;37.40;64.60;;;;;;5094202;28;20047;-70
2023/07/21 11:32:28;;;;;;;23.40;7.95;;;37.30;64.10;;;;;;5093861;28;20297;-70
2023/07/21 11:35:32;;;;;;;33.60;8.75;;;37.20;63.70;;;;;;5093787;28;20039;-70
2023/07/21 11:38:37;;;;;;;37.47;8.75;;;37.10;64.20;;;;;;5094119;28;20510;-70
2023/07/21 11:41:41;;;;;;;21.00;8.48;;;37.10;64.40;;;;;;5094154;28;20426;-70
2023/07/21 11:44:44;;;;;;;22.48;7.63;;;37.20;64.90;;;;;;5093967;28;20039;-70
2023/07/21 11:47:48;;;;;;;28.92;8.38;;;37.30;65.40;;;;;;5093843;28;20047;-70
2023/07/21 11:50:54;;;;;;;19.52;8.35;;;37.30;64.30;;;;;;5093714;28;20058;-70
2023/07/21 11:53:59;;;;;;;21.75;9.07;;;37.30;65.20;;;;;;5093880;28;20047;-70
2023/07/21 11:57:04;;;;;;;24.05;7.57;;;37.30;65.00;;;;;;5093919;28;20043;-71
2023/07/21 12:00:11;;;;;;;20.15;7.65;;;37.40;65.80;;;;;;5093744;28;20399;-71
2023/07/21 12:03:15;;;;;;;25.00;8.07;;;37.40;67.60;;;;;;5093688;28;20458;-71
2023/07/21 12:06:19;;;;;;;33.35;6.93;;;37.50;69.20;;;;;;5093453;28;20043;-71
2023/07/21 12:09:23;;;;;;;22.13;6.72;;;37.50;68.10;;;;;;5093168;28;20051;-71
2023/07/21 12:12:27;;;;;;;30.58;7.15;;;37.40;67.90;;;;;;5093446;28;20042;-71
2023/07/21 12:15:31;;;;;;;24.35;6.65;;;37.30;67.20;;;;;;5093484;28;20395;-70
2023/07/21 12:18:36;;;;;;;21.70;6.88;;;37.10;67.00;;;;;;5093519;28;20455;-70
2023/07/21 12:21:41;;;;;;;16.83;6.50;;;37.10;67.60;;;;;;5092933;28;20051;-72
2023/07/21 12:24:44;;;;;;;27.42;6.63;;;37.10;68.60;;;;;;5092978;28;20067;-69
2023/07/21 12:27:50;;;;;;;22.77;6.57;;;37.70;68.60;;;;;;5093249;28;20043;-70
2023/07/21 12:30:54;;;;;;;27.13;6.78;;;38.80;68.90;;;;;;5093189;28;20074;-71
2023/07/21 12:33:57;;;;;;;23.45;7.15;;;39.60;67.80;;;;;;5092926;28;20042;-71
2023/07/21 12:37:02;;;;;;;32.30;7.13;;;39.80;67.30;;;;;;5093103;28;20043;-71
2023/07/21 12:40:13;;;;;;;24.95;6.88;;;39.80;67.80;;;;;;5092901;28;20047;-72
2023/07/21 12:43:17;;;;;;;23.75;7.07;;;39.70;68.10;;;;;;5092913;28;20046;-70
2023/07/21 12:46:21;;;;;;;24.63;7.28;;;39.70;67.60;;;;;;5092701;28;20051;-70
2023/07/21 12:49:26;;;;;;;26.23;8.05;;;39.60;68.10;;;;;;5092862;28;20051;-71
2023/07/21 12:52:30;;;;;;;33.03;6.63;;;39.50;68.50;;;;;;5092944;28;20035;-70
2023/07/21 12:55:34;;;;;;;22.55;6.97;;;39.40;68.00;;;;;;5092764;28;20043;-71
2023/07/21 12:58:38;;;;;;;31.77;7.22;;;39.40;68.10;;;;;;5091777;28;20517;-71
2023/07/21 13:01:42;;;;;;;21.48;6.55;;;39.60;67.20;;;;;;5092595;28;20039;-72
2023/07/21 13:04:46;;;;;;;24.30;6.53;;;39.80;66.70;;;;;;5092526;28;20060;-72
2023/07/21 13:07:50;;;;;;;29.48;7.00;;;40.10;65.40;;;;;;5092419;28;20039;-72
2023/07/21 13:10:54;;;;;;;34.40;7.22;;;40.00;65.60;;;;;;5092266;28;20055;-71
2023/07/21 13:13:58;;;;;;;30.08;6.60;;;39.60;65.40;;;;;;5092373;28;20423;-72
2023/07/21 13:17:03;;;;;;;26.95;6.50;;;39.40;65.50;;;;;;5092358;28;20051;-70
2023/07/21 13:20:13;;;;;;;24.60;6.82;;;39.30;64.80;;;;;;5092423;28;20039;-72
2023/07/21 13:23:17;;;;;;;25.00;6.88;;;39.40;64.20;;;;;;5092203;28;20405;-69
2023/07/21 13:26:21;;;;;;;31.33;6.22;;;39.60;64.20;;;;;;5091937;28;20047;-71
2023/07/21 13:29:26;;;;;;;28.17;7.72;;;39.70;63.90;;;;;;5092075;28;20047;-71
2023/07/21 13:32:30;;;;;;;29.83;5.88;;;39.90;62.30;;;;;;5091309;28;20051;-71
2023/07/21 13:35:35;;;;;;;28.42;5.53;;;39.90;63.60;;;;;;5091670;28;20039;-71
2023/07/21 13:38:39;;;;;;;19.42;6.18;;;39.70;63.60;;;;;;5091724;28;20046;-71
2023/07/21 13:41:44;;;;;;;23.75;5.88;;;39.30;63.00;;;;;;5091655;28;20050;-72
2023/07/21 13:44:48;;;;;;;25.33;6.75;;;39.30;63.90;;;;;;5091828;28;20503;-72
2023/07/21 13:47:52;;;;;;;23.80;6.43;;;39.30;66.00;;;;;;5091870;28;20467;-70
2023/07/21 13:50:56;;;;;;;27.45;5.65;;;39.20;66.00;;;;;;5091429;28;20075;-72
2023/07/21 13:54:00;;;;;;;26.42;6.45;;;38.90;66.80;;;;;;5091314;28;20386;-70
2023/07/21 13:57:04;;;;;;;33.25;7.07;;;39.20;67.30;;;;;;5090901;28;20054;-70
2023/07/21 14:00:18;;;;;;;29.98;6.78;;;39.30;66.50;;;;;;5091592;28;20063;-71
2023/07/21 14:03:22;;;;;;;23.08;6.28;;;39.40;65.40;;;;;;5091585;28;20046;-71
2023/07/21 14:06:26;;;;;;;30.08;6.70;;;39.30;65.20;;;;;;5091668;28;20051;-71
2023/07/21 14:09:30;;;;;;;34.78;6.72;;;39.40;64.80;;;;;;5091396;28;20051;-72
2023/07/21 14:12:34;;;;;;;27.08;6.18;;;39.40;64.30;;;;;;5091380;28;20062;-71
2023/07/21 14:15:38;;;;;;;33.70;6.43;;;39.20;63.90;;;;;;5091444;28;20047;-72
2023/07/21 14:18:43;;;;;;;38.80;6.72;;;39.20;64.60;;;;;;5091336;28;20038;-72
2023/07/21 14:21:47;;;;;;;26.50;6.53;;;39.30;63.60;;;;;;5091102;28;20431;-71
2023/07/21 14:24:51;;;;;;;35.58;6.50;;;39.30;63.00;;;;;;5090611;28;20063;-71
2023/07/21 14:27:55;;;;;;;26.35;6.00;;;39.30;63.40;;;;;;5090154;28;20047;-71
2023/07/21 14:31:01;;;;;;;34.92;5.97;;;39.50;63.80;;;;;;5090674;28;20055;-70
2023/07/21 14:34:06;;;;;;;31.30;6.40;;;39.30;63.90;;;;;;5090969;28;20383;-71
2023/07/21 14:37:09;;;;;;;35.92;6.15;;;39.50;63.20;;;;;;5091515;28;20375;-71
2023/07/21 14:40:15;;;;;;;34.15;7.03;;;39.20;63.40;;;;;;5091025;28;20047;-70
2023/07/21 14:43:18;;;;;;;29.02;7.82;;;39.20;63.80;;;;;;5093273;28;20038;-72
2023/07/21 14:46:22;;;;;;;27.80;5.63;;;39.00;64.70;;;;;;5095418;28;20043;-70
2023/07/21 14:49:26;;;;;;;36.42;7.30;;;39.20;64.90;;;;;;5094828;28;20035;-69
2023/07/21 14:52:30;;;;;;;28.67;6.57;;;39.10;64.90;;;;;;5094744;28;20047;-68
2023/07/21 14:55:34;;;;;;;36.78;6.95;;;39.00;65.70;;;;;;5094830;28;20058;-69
2023/07/21 14:58:38;;;;;;;27.55;6.80;;;39.10;66.20;;;;;;5095017;28;20534;-68
2023/07/21 15:01:43;;;;;;;33.88;6.95;;;39.00;66.50;;;;;;5094858;28;20051;-71
2023/07/21 15:04:48;;;;;;;27.48;5.72;;;38.80;65.00;;;;;;5094117;28;20114;-71
2023/07/21 15:07:52;;;;;;;24.23;6.13;;;38.70;66.50;;;;;;5094629;28;20039;-70
2023/07/21 15:10:56;;;;;;;29.77;5.90;;;38.70;67.10;;;;;;5094291;28;20055;-70
2023/07/21 15:14:00;;;;;;;22.40;6.28;;;38.80;66.60;;;;;;5094536;28;20047;-69
2023/07/21 15:17:05;;;;;;;33.17;6.75;;;38.70;66.40;;;;;;5094678;28;20047;-69
2023/07/21 15:20:15;;;;;;;34.05;6.10;;;38.30;67.70;;;;;;5094618;28;20059;-70
2023/07/21 15:23:20;;;;;;;68.20;10.20;;;38.60;68.30;;;;;;5094337;28;20145;-72
2023/07/21 15:26:25;;;;;;;23.90;7.25;;;38.80;68.30;;;;;;5094416;28;20051;-70
2023/07/21 15:29:28;;;;;;;31.73;7.20;;;38.90;69.00;;;;;;5094275;28;20059;-69
2023/07/21 15:32:32;;;;;;;16.60;5.78;;;39.00;68.90;;;;;;5094370;28;20047;-69
2023/07/21 15:35:44;;;;;;;21.38;6.43;;;38.80;69.80;;;;;;5094237;28;20044;-70
2023/07/21 15:38:48;;;;;;;25.98;6.88;;;38.90;70.80;;;;;;5093887;28;20541;-70
2023/07/21 15:41:52;;;;;;;18.58;5.70;;;38.90;71.00;;;;;;5093949;28;20047;-71
2023/07/21 15:44:56;;;;;;;28.35;7.30;;;39.00;70.60;;;;;;5093924;28;20153;-70
2023/07/21 15:48:00;;;;;;;37.97;7.22;;;38.90;69.60;;;;;;5094018;28;20062;-71
2023/07/21 15:51:05;;;;;;;25.35;6.40;;;39.00;70.70;;;;;;5093868;28;20059;-70
2023/07/21 15:54:10;;;;;;;23.30;6.47;;;39.00;71.10;;;;;;5092998;28;20047;-69
2023/07/21 15:57:14;;;;;;;30.95;6.53;;;38.60;71.00;;;;;;5093777;28;20054;-71
2023/07/21 16:00:19;;;;;;;22.40;7.13;;;38.30;72.00;;;;;;5093870;28;20051;-70
2023/07/21 16:03:23;;;;;;;22.30;7.00;;;38.50;71.80;;;;;;5093507;28;20043;-71
2023/07/21 16:06:26;;;;;;;22.38;6.38;;;38.50;71.90;;;;;;5093586;28;20110;-70
2023/07/21 16:09:34;;;;;;;25.15;7.20;;;38.60;71.70;;;;;;5093479;28;20051;-71
2023/07/21 16:12:39;;;;;;;21.48;6.57;;;38.60;71.60;;;;;;5093545;28;20043;-73
2023/07/21 16:15:53;;;;;;;30.42;6.82;;;37.80;72.60;;;;;;5093206;28;20502;-73
2023/07/21 16:18:57;;;;;;;26.08;6.75;;;37.30;73.20;;;;;;5093633;28;20367;-71
2023/07/21 16:22:02;;;;;;;29.08;6.28;;;36.80;74.30;;;;;;5093159;28;20122;-70
2023/07/21 16:25:07;;;;;;;23.83;7.35;;;36.40;75.50;;;;;;5092142;28;20059;-69
2023/07/21 16:28:12;;;;;;;27.38;7.03;;;36.00;76.70;;;;;;5092779;28;20039;-70
2023/07/21 16:31:16;;;;;;;21.75;6.53;;;35.80;76.90;;;;;;5092935;28;20055;-70
2023/07/21 16:34:20;;;;;;;23.63;6.43;;;35.70;77.00;;;;;;5093135;28;20064;-70
2023/07/21 16:37:23;;;;;;;26.75;7.43;;;35.50;77.20;;;;;;5091933;28;20051;-74
2023/07/21 16:40:28;;;;;;;24.30;6.93;;;35.40;77.50;;;;;;5092844;28;20051;-73
2023/07/21 16:43:32;;;;;;;23.40;6.72;;;35.20;78.40;;;;;;5092345;28;20050;-73
2023/07/21 16:46:36;;;;;;;23.67;6.72;;;35.00;78.50;;;;;;5091559;28;20039;-73
2023/07/21 16:49:40;;;;;;;31.55;6.95;;;35.00;78.80;;;;;;5092016;28;20047;-73
2023/07/21 16:52:44;;;;;;;26.58;7.00;;;35.00;78.80;;;;;;5092578;28;20039;-73
2023/07/21 16:55:48;;;;;;;29.98;7.28;;;34.90;78.90;;;;;;5092661;28;20486;-73
2023/07/21 16:58:52;;;;;;;27.17;6.63;;;34.80;78.80;;;;;;5092414;28;20047;-73
2023/07/21 17:01:56;;;;;;;21.23;6.72;;;34.70;78.10;;;;;;5092603;28;20043;-73
2023/07/21 17:05:00;;;;;;;28.42;7.32;;;34.70;77.90;;;;;;5092494;28;20067;-73
2023/07/21 17:08:04;;;;;;;25.23;6.15;;;34.60;78.90;;;;;;5092181;28;20043;-73
2023/07/21 17:11:08;;;;;;;28.00;7.22;;;34.60;78.30;;;;;;5092166;28;20407;-73
2023/07/21 17:14:12;;;;;;;23.65;9.38;;;34.60;78.50;;;;;;5092319;28;20503;-73
2023/07/21 17:17:17;;;;;;;33.20;10.38;;;34.50;79.00;;;;;;5092533;28;20043;-73
2023/07/21 17:20:20;;;;;;;29.88;9.60;;;34.40;78.80;;;;;;5092003;28;20054;-73
2023/07/21 17:23:24;;;;;;;20.70;7.90;;;34.40;79.20;;;;;;5091677;28;20054;-72
2023/07/21 17:26:28;;;;;;;25.17;7.55;;;34.30;79.00;;;;;;5091862;28;20051;-73
2023/07/21 17:29:32;;;;;;;30.67;8.63;;;34.20;79.40;;;;;;5092336;28;20150;-73
2023/07/21 17:32:38;;;;;;;27.13;7.70;;;34.20;79.80;;;;;;5092004;28;20054;-73
2023/07/21 17:35:43;;;;;;;36.13;7.72;;;34.10;79.40;;;;;;5091627;28;20039;-73
2023/07/21 17:38:47;;;;;;;26.73;7.25;;;34.10;79.00;;;;;;5091766;28;20059;-73
2023/07/21 17:41:51;;;;;;;31.85;6.93;;;34.00;78.20;;;;;;5091444;28;20039;-73
2023/07/21 17:44:54;;;;;;;21.83;6.68;;;34.00;78.10;;;;;;5091630;28;20039;-73
2023/07/21 17:47:59;;;;;;;24.80;6.85;;;34.00;78.20;;;;;;5091699;28;20526;-73
2023/07/21 17:51:03;;;;;;;28.38;7.90;;;33.90;78.90;;;;;;5091285;28;20054;-73
2023/07/21 17:54:07;;;;;;;24.20;7.57;;;33.90;80.30;;;;;;5091564;28;20039;-73
2023/07/21 17:57:11;;;;;;;30.05;8.27;;;33.80;80.60;;;;;;5091482;28;20063;-73
2023/07/21 18:00:15;;;;;;;23.80;7.03;;;33.80;80.70;;;;;;5090904;28;20391;-73
2023/07/21 18:03:20;;;;;;;38.75;7.85;;;33.70;81.30;;;;;;5091267;28;20046;-73
2023/07/21 18:06:27;;;;;;;36.05;7.22;;;33.60;81.40;;;;;;5091047;28;20059;-73
2023/07/21 18:09:31;;;;;;;34.28;8.65;;;33.60;81.40;;;;;;5090892;28;20134;-74
2023/07/21 18:12:35;;;;;;;41.53;8.10;;;33.50;81.10;;;;;;5090807;28;20055;-73
2023/07/21 18:15:39;;;;;;;29.75;7.50;;;33.40;81.60;;;;;;5091427;28;20039;-73
2023/07/21 18:18:43;;;;;;;38.45;8.50;;;33.30;82.20;;;;;;5090700;28;20486;-73
2023/07/21 18:21:47;;;;;;;36.47;8.23;;;33.30;82.80;;;;;;5091103;28;20403;-73
2023/07/21 18:24:51;;;;;;;35.40;8.07;;;33.20;83.00;;;;;;5090608;28;20434;-73
2023/07/21 18:27:55;;;;;;;30.27;8.20;;;33.20;83.30;;;;;;5090746;28;20047;-73
2023/07/21 18:30:59;;;;;;;34.47;8.07;;;33.10;83.20;;;;;;5090460;28;20051;-73
2023/07/21 18:34:03;;;;;;;34.92;8.18;;;33.10;83.40;;;;;;5090863;28;20047;-72
2023/07/21 18:37:07;;;;;;;28.05;7.18;;;33.00;83.70;;;;;;5090828;28;20083;-73
2023/07/21 18:40:18;;;;;;;31.35;8.25;;;33.00;84.00;;;;;;5090530;28;20047;-73
2023/07/21 18:43:22;;;;;;;16.60;7.90;;;33.00;84.40;;;;;;5090643;28;20063;-73
2023/07/21 18:46:27;;;;;;;31.05;7.85;;;32.90;84.90;;;;;;5090852;28;20047;-73
2023/07/21 18:49:32;;;;;;;26.58;8.05;;;32.80;85.30;;;;;;5090972;28;20411;-73
2023/07/21 18:52:35;;;;;;;22.67;8.32;;;32.80;86.00;;;;;;5090824;28;20510;-73
2023/07/21 18:55:41;;;;;;;35.95;9.40;;;32.70;86.50;;;;;;5091429;28;20056;-73
2023/07/21 18:58:46;;;;;;;26.63;8.60;;;32.70;87.10;;;;;;5090666;28;20047;-73
2023/07/21 19:01:50;;;;;;;30.48;8.77;;;32.70;87.90;;;;;;5090889;28;20043;-74
2023/07/21 19:04:54;;;;;;;35.92;8.75;;;32.60;88.00;;;;;;5090877;28;20050;-73
2023/07/21 19:07:59;;;;;;;30.38;8.02;;;32.60;87.60;;;;;;5090788;28;20040;-73
2023/07/21 19:11:03;;;;;;;29.42;8.40;;;32.50;85.30;;;;;;5090348;28;20047;-74
2023/07/21 19:14:07;;;;;;;26.23;8.30;;;32.30;84.00;;;;;;5090674;28;20043;-74
2023/07/21 19:17:12;;;;;;;31.00;7.82;;;32.30;85.00;;;;;;5090760;28;20047;-74
2023/07/21 19:20:18;;;;;;;31.42;8.65;;;32.10;84.90;;;;;;5090528;28;20510;-75
2023/07/21 19:23:23;;;;;;;37.42;9.50;;;32.00;85.30;;;;;;5090128;28;20039;-73
2023/07/21 19:26:27;;;;;;;33.90;8.40;;;32.00;85.40;;;;;;5090594;28;20043;-73
2023/07/21 19:29:33;;;;;;;34.13;8.98;;;31.90;85.00;;;;;;5091579;28;20050;-73
2023/07/21 19:32:41;;;;;;;28.75;8.43;;;31.90;84.80;;;;;;5094279;28;20055;-73
2023/07/21 19:35:45;;;;;;;26.38;8.55;;;31.80;85.30;;;;;;5094302;28;20039;-73
2023/07/21 19:38:49;;;;;;;37.03;9.00;;;31.80;85.90;;;;;;5094086;28;20506;-74
2023/07/21 19:41:54;;;;;;;29.95;8.85;;;31.80;86.10;;;;;;5095310;28;20058;-72
2023/07/21 19:44:58;;;;;;;39.00;8.98;;;31.70;86.60;;;;;;5094218;28;20043;-73
2023/07/21 19:48:02;;;;;;;37.90;10.48;;;31.50;86.80;;;;;;5094205;28;20039;-73
2023/07/21 19:51:13;;;;;;;33.67;9.27;;;31.50;86.00;;;;;;5093935;28;20051;-73
2023/07/21 19:54:18;;;;;;;30.27;8.23;;;31.50;86.30;;;;;;5093625;28;20043;-73
2023/07/21 19:57:22;;;;;;;31.67;8.77;;;31.50;86.30;;;;;;5093844;28;20518;-73
2023/07/21 20:00:26;;;;;;;38.38;9.65;;;31.40;86.40;;;;;;5093450;28;20039;-73
2023/07/21 20:03:31;;;;;;;35.80;8.93;;;31.40;86.80;;;;;;5093635;28;20047;-73
2023/07/21 20:06:35;;;;;;;32.75;9.50;;;31.40;84.80;;;;;;5093553;28;20034;-73
2023/07/21 20:09:38;;;;;;;44.85;8.85;;;31.30;85.00;;;;;;5093320;28;20043;-73
2023/07/21 20:12:42;;;;;;;34.97;8.48;;;31.20;85.30;;;;;;5093263;28;20054;-73
2023/07/21 20:15:46;;;;;;;32.03;8.65;;;31.10;85.60;;;;;;5093485;28;20043;-73
2023/07/21 20:18:50;;;;;;;38.22;9.45;;;31.10;84.60;;;;;;5093376;28;20039;-73
2023/07/21 20:21:54;;;;;;;35.83;10.05;;;31.20;85.10;;;;;;5093047;28;20518;-73
2023/07/21 20:24:58;;;;;;;33.65;8.68;;;31.10;85.30;;;;;;5092915;28;20051;-73
2023/07/21 20:28:02;;;;;;;39.03;8.73;;;31.10;85.30;;;;;;5093113;28;20047;-73
2023/07/21 20:31:12;;;;;;;36.20;9.57;;;31.00;85.70;;;;;;5093113;28;20430;-73
2023/07/21 20:34:16;;;;;;;31.70;10.27;;;31.00;86.20;;;;;;5093007;28;20043;-73
2023/07/21 20:37:23;;;;;;;36.22;10.85;;;30.90;85.50;;;;;;5093189;28;20043;-73
2023/07/21 20:40:26;;;;;;;33.95;10.10;;;30.80;85.40;;;;;;5092595;28;20050;-73
2023/07/21 20:43:30;;;;;;;27.20;9.23;;;30.70;86.20;;;;;;5092770;28;20047;-73
2023/07/21 20:46:34;;;;;;;31.75;8.48;;;30.70;84.90;;;;;;5092956;28;20043;-73
2023/07/21 20:49:38;;;;;;;28.48;8.88;;;30.70;84.10;;;;;;5092828;28;20055;-73
2023/07/21 20:52:42;;;;;;;36.80;9.05;;;30.70;83.30;;;;;;5092492;28;20067;-73
2023/07/21 20:55:48;;;;;;;31.55;9.02;;;30.60;84.00;;;;;;5092897;28;20043;-73
2023/07/21 20:58:52;;;;;;;31.30;9.57;;;30.50;83.50;;;;;;5092790;28;20047;-73
2023/07/21 21:01:56;;;;;;;35.60;9.20;;;30.40;80.50;;;;;;5092735;28;20486;-73
2023/07/21 21:05:01;;;;;;;27.30;8.60;;;30.50;80.30;;;;;;5092551;28;20051;-73
2023/07/21 21:08:06;;;;;;;27.98;8.65;;;30.60;81.60;;;;;;5092365;28;20054;-73
2023/07/21 21:11:10;;;;;;;37.92;9.18;;;30.50;81.80;;;;;;5092388;28;20063;-73
2023/07/21 21:14:14;;;;;;;39.08;8.73;;;30.50;81.50;;;;;;5092274;28;20038;-73
2023/07/21 21:17:18;;;;;;;36.03;9.32;;;30.50;81.80;;;;;;5092435;28;20395;-73
2023/07/21 21:20:22;;;;;;;31.52;8.75;;;30.40;80.50;;;;;;5092375;28;20114;-72
2023/07/21 21:23:26;;;;;;;31.20;9.02;;;30.30;81.30;;;;;;5091186;28;20050;-73
2023/07/21 21:26:30;;;;;;;33.03;8.63;;;30.30;81.70;;;;;;5092272;28;20059;-73
2023/07/21 21:29:34;;;;;;;29.65;9.52;;;30.10;81.80;;;;;;5091368;28;20047;-73
2023/07/21 21:32:37;;;;;;;45.03;10.60;;;30.10;80.60;;;;;;5091773;28;20047;-73
2023/07/21 21:35:41;;;;;;;40.78;12.60;;;30.00;80.30;;;;;;5092015;28;20521;-73
2023/07/21 21:38:45;;;;;;;48.20;16.15;;;30.00;80.30;;;;;;5091874;28;20051;-72
2023/07/21 21:41:50;;;;;;;38.10;13.13;;;29.80;81.30;;;;;;5091821;28;20514;-73
2023/07/21 21:44:54;;;;;;;42.25;11.05;;;29.80;80.20;;;;;;5091813;28;20047;-73
2023/07/21 21:47:58;;;;;;;42.47;11.52;;;29.70;79.20;;;;;;5092011;28;20411;-73
2023/07/21 21:51:02;;;;;;;37.70;11.20;;;29.70;79.10;;;;;;5091688;28;20055;-73
2023/07/21 21:54:06;;;;;;;51.38;12.00;;;29.70;79.60;;;;;;5091226;28;20110;-73
2023/07/21 21:57:10;;;;;;;42.25;12.30;;;29.70;79.30;;;;;;5091524;28;20039;-73
2023/07/21 22:00:14;;;;;;;35.67;12.25;;;29.70;78.70;;;;;;5091682;28;20035;-73
2023/07/21 22:03:19;;;;;;;34.75;10.77;;;29.60;79.20;;;;;;5091910;28;20039;-73
2023/07/21 22:06:24;;;;;;;36.30;11.10;;;29.50;78.80;;;;;;5091590;28;20044;-73
2023/07/21 22:09:28;;;;;;;36.13;9.98;;;29.50;79.60;;;;;;5091298;28;20039;-73
2023/07/21 22:12:31;;;;;;;39.88;10.23;;;29.60;78.80;;;;;;5091063;28;20514;-73